الصفحة الرئيسية
METAR-TAF:

METAR-TAF

مطار :

مطار بانجول الدولي

بانجول, غامبيا

دائرة عرض: 13-21N, خط طول: 016-48W, ارتفاع: 36 متر

مراقبة الطقس الحالي

تاريخ ووقت الإصدار 44 دقيقة قبل الساعة 17:00UTC
ريح 6 عقدة من الشمال الشرقي
درجة الحرارة 40°درجة مئوية
الرطوبة 13%
ضغط 1006 hPa
الرؤية: 8000 متر
العجاج,

METAR: GBYD 161700Z 05006KT 8000 HZ NSC 40/06 Q1006

زمن: 17:44 (17:44 UTC)

توقعات

تاريخ ووقت الإصدار 44 دقيقة قبل الساعة 17:00UTC
التوقعات صالحة من16 الساعة 18 UTC إلى 17 الساعة 24 UTC
ريح 8 عقدة من الشمال
الرؤية 10 كم أو أكثر
الغيوم لا تقل 1500 م ولا وجود لمزنة ركامية السحاب الأسود

TAF: GBYD 161700Z 1618/1724 35008KT CAVOK

أرصاد الطقس والتوقعات من أكثر من 4000 مطار (تقارير الطقس للمطار METAR والتنبؤ بالطقس بالمطارTAF).

المحطات المتاحة هي النقط الصفراء والحمراء على الخريطة.

حرك المؤشر فوق النقطة لمعرفة اسم المحطة.

ثم انقر لمعرفة أرصاد وتوقعات الطقس.

لتغيير الخارطة: اضغط على الأزرار الخضراء مع رمز الصليب الأسود للتكبير. على الزر الأخضر مع شرطة للتصغير، أو على الأسهم الخضراء للخرائط المجاورة.


METAR-TAF: